Time;durP1;ratioP1;P1;durP2;ratioP2;P2;SDS_P1;SDS_P2;PMS_P1;PMS_P2;Temp;Humidity;BMP_temperature;BMP_pressure;BME280_temperature;BME280_humidity;BME280_pressure;Samples;Min_cycle;Max_cycle;Signal;HPM_P1;HPM_P2
2021/10/31 00:04:26;;;;;;;10.13;7.28;;;12.10;99.90;;;;;;12298901;28;20047;-85
2021/10/31 00:10:28;;;;;;;9.23;7.22;;;12.20;99.90;;;;;;12307051;28;20051;-84
2021/10/31 00:16:30;;;;;;;9.23;7.68;;;12.20;99.90;;;;;;12302899;28;20438;-85
2021/10/31 00:22:33;;;;;;;10.27;6.82;;;12.30;99.90;;;;;;12303523;28;20089;-86
2021/10/31 00:28:35;;;;;;;9.95;7.05;;;12.40;99.90;;;;;;12304071;28;20085;-86
2021/10/31 00:34:37;;;;;;;9.85;7.88;;;12.40;99.90;;;;;;12303564;28;20042;-85
2021/10/31 00:40:39;;;;;;;10.48;7.22;;;12.40;99.90;;;;;;12309464;28;20058;-84
2021/10/31 00:46:41;;;;;;;9.25;7.60;;;12.40;99.90;;;;;;12311024;28;20150;-86
2021/10/31 00:52:43;;;;;;;9.23;7.50;;;12.40;99.90;;;;;;12312180;28;20058;-86
2021/10/31 00:58:44;;;;;;;9.85;7.60;;;12.40;99.90;;;;;;12312904;28;20050;-84
2021/10/31 01:04:52;;;;;;;11.05;7.47;;;12.30;99.90;;;;;;12302488;28;20575;-86
2021/10/31 01:11:09;;;;;;;10.40;7.80;;;12.30;99.90;;;;;;12310959;28;20519;-85
2021/10/31 01:18:04;;;;;;;9.73;7.55;;;12.20;99.90;;;;;;12327543;28;20559;-86
2021/10/31 01:24:14;;;;;;;19.73;8.15;;;12.10;99.90;;;;;;12152488;28;20052;-86
2021/10/31 01:30:47;;;;;;;10.13;7.80;;;12.10;99.90;;;;;;12311410;28;20051;-86
2021/10/31 01:37:16;;;;;;;10.73;8.32;;;12.10;99.90;;;;;;12309758;28;20435;-85
2021/10/31 01:43:29;;;;;;;10.50;8.70;;;12.00;99.90;;;;;;12305467;28;20550;-84
2021/10/31 01:49:51;;;;;;;12.88;9.10;;;12.00;99.90;;;;;;12310300;28;20141;-85
2021/10/31 01:56:02;;;;;;;11.95;7.97;;;12.00;99.90;;;;;;12305010;28;20522;-84
2021/10/31 02:02:06;;;;;;;11.82;9.35;;;12.00;99.90;;;;;;12306882;28;20109;-85
2021/10/31 02:08:11;;;;;;;11.27;9.18;;;12.10;99.90;;;;;;12308504;28;20057;-84
2021/10/31 02:14:15;;;;;;;10.75;8.15;;;12.10;99.90;;;;;;12306858;28;20098;-86
2021/10/31 02:20:18;;;;;;;12.15;8.35;;;12.10;99.90;;;;;;12321912;28;20136;-86
2021/10/31 02:26:20;;;;;;;10.90;7.50;;;12.10;99.90;;;;;;12306829;28;20422;-85
2021/10/31 02:32:25;;;;;;;10.73;8.55;;;12.10;99.90;;;;;;12307743;28;20608;-86
2021/10/31 02:38:27;;;;;;;8.82;7.60;;;12.10;99.90;;;;;;12315137;28;20102;-87
2021/10/31 02:44:29;;;;;;;11.15;8.43;;;11.90;99.90;;;;;;12307679;28;20508;-84
2021/10/31 02:50:40;;;;;;;11.95;9.77;;;11.90;99.90;;;;;;12299715;28;20122;-85
2021/10/31 02:56:46;;;;;;;12.88;9.10;;;11.80;99.90;;;;;;12306547;28;20088;-85
2021/10/31 03:02:48;;;;;;;11.35;9.25;;;11.80;99.90;;;;;;12300282;28;20043;-85
2021/10/31 03:08:52;;;;;;;10.57;8.88;;;11.80;99.90;;;;;;12301366;28;21005;-86
2021/10/31 03:14:54;;;;;;;13.43;9.25;;;11.70;99.90;;;;;;12304903;28;20684;-85
2021/10/31 03:20:58;;;;;;;12.55;9.55;;;11.70;99.90;;;;;;12306432;28;20065;-85
2021/10/31 03:27:01;;;;;;;16.02;10.40;;;11.60;99.90;;;;;;12294106;28;20054;-86
2021/10/31 03:33:04;;;;;;;13.15;10.23;;;11.50;99.90;;;;;;12300507;28;20113;-86
2021/10/31 03:39:06;;;;;;;13.32;9.75;;;11.50;99.90;;;;;;12291420;28;20058;-86
2021/10/31 03:45:10;;;;;;;14.38;10.93;;;11.30;99.90;;;;;;12300913;28;20069;-86
2021/10/31 03:51:12;;;;;;;15.57;10.80;;;11.30;99.90;;;;;;12296613;28;20047;-86
2021/10/31 03:57:14;;;;;;;17.80;11.45;;;11.30;99.90;;;;;;12304943;28;20352;-86
2021/10/31 04:03:16;;;;;;;14.57;10.60;;;11.20;99.90;;;;;;12300148;28;20075;-86
2021/10/31 04:09:18;;;;;;;14.65;10.23;;;11.20;99.90;;;;;;12302228;28;20078;-85
2021/10/31 04:15:20;;;;;;;15.10;10.13;;;11.20;99.90;;;;;;12298775;28;20051;-85
2021/10/31 04:21:22;;;;;;;12.50;9.80;;;11.00;99.90;;;;;;12299853;28;20078;-86
2021/10/31 04:27:24;;;;;;;12.60;9.93;;;10.90;99.90;;;;;;12300961;28;20463;-85
2021/10/31 04:33:26;;;;;;;13.55;10.32;;;10.70;99.90;;;;;;12299382;28;20055;-86
2021/10/31 04:39:28;;;;;;;12.63;9.93;;;10.60;99.90;;;;;;12301259;28;20065;-86
2021/10/31 04:45:30;;;;;;;14.00;10.57;;;10.70;99.90;;;;;;12298647;28;20055;-85
2021/10/31 04:51:32;;;;;;;12.27;9.68;;;10.60;99.90;;;;;;12324595;28;20288;-86
2021/10/31 04:57:34;;;;;;;16.65;9.93;;;10.70;99.90;;;;;;12310187;28;20114;-86
2021/10/31 05:03:37;;;;;;;12.88;10.57;;;10.70;99.90;;;;;;12315461;28;20145;-86
2021/10/31 05:09:39;;;;;;;13.75;10.73;;;10.70;99.90;;;;;;12296955;28;20384;-85
2021/10/31 05:15:41;;;;;;;14.48;10.52;;;10.70;99.90;;;;;;12312859;28;20186;-85
2021/10/31 05:21:43;;;;;;;13.68;11.00;;;10.70;99.90;;;;;;12323738;28;20082;-86
2021/10/31 05:27:45;;;;;;;17.40;11.15;;;10.70;99.90;;;;;;12312106;28;20050;-86
2021/10/31 05:33:47;;;;;;;14.90;11.07;;;10.80;99.90;;;;;;12311492;28;20104;-86
2021/10/31 05:39:49;;;;;;;16.48;11.10;;;10.80;99.90;;;;;;12309434;28;20059;-85
2021/10/31 05:45:51;;;;;;;16.05;10.98;;;10.80;99.90;;;;;;12308053;28;20063;-85
2021/10/31 05:51:53;;;;;;;18.15;11.95;;;10.80;99.90;;;;;;12309521;28;20097;-86
2021/10/31 05:57:55;;;;;;;14.65;11.63;;;10.70;99.90;;;;;;12309614;28;20057;-85
2021/10/31 06:03:57;;;;;;;16.05;12.80;;;10.80;99.90;;;;;;12306050;28;20101;-85
2021/10/31 06:09:59;;;;;;;17.92;13.10;;;10.70;99.90;;;;;;12306193;28;20051;-85
2021/10/31 06:16:01;;;;;;;15.45;11.45;;;10.80;99.90;;;;;;12303383;28;20077;-84
2021/10/31 06:22:05;;;;;;;14.52;11.35;;;10.70;99.90;;;;;;12308028;28;20109;-84
2021/10/31 06:28:08;;;;;;;14.30;11.23;;;10.80;99.90;;;;;;12302425;28;20101;-84
2021/10/31 06:34:10;;;;;;;14.70;10.90;;;10.70;99.90;;;;;;12318366;28;20095;-85
2021/10/31 06:40:12;;;;;;;15.38;11.68;;;10.70;99.90;;;;;;12303663;28;20098;-85
2021/10/31 06:46:14;;;;;;;16.52;11.88;;;10.70;99.90;;;;;;12322367;28;20085;-85
2021/10/31 06:52:16;;;;;;;16.05;11.40;;;10.70;99.90;;;;;;12301624;28;20162;-84
2021/10/31 06:58:18;;;;;;;17.08;11.95;;;10.60;99.90;;;;;;12304274;28;20507;-85
2021/10/31 07:04:20;;;;;;;16.23;12.18;;;10.60;99.90;;;;;;12300955;28;20636;-84
2021/10/31 07:10:22;;;;;;;20.15;12.73;;;10.60;99.90;;;;;;12306549;28;20559;-84
2021/10/31 07:16:24;;;;;;;19.83;13.60;;;10.70;99.90;;;;;;12295276;28;20657;-84
2021/10/31 07:22:26;;;;;;;23.77;12.88;;;10.60;99.90;;;;;;12302312;28;20046;-83
2021/10/31 07:28:28;;;;;;;20.70;13.45;;;10.60;99.90;;;;;;12301479;28;20109;-84
2021/10/31 07:34:30;;;;;;;18.75;12.68;;;10.70;99.90;;;;;;12295771;28;20125;-84
2021/10/31 07:40:32;;;;;;;17.42;12.18;;;10.80;99.90;;;;;;12293640;28;20050;-84
2021/10/31 07:46:34;;;;;;;20.83;13.20;;;10.90;99.90;;;;;;12306060;28;20578;-83
2021/10/31 07:52:42;;;;;;;18.67;12.57;;;11.10;99.90;;;;;;12301574;28;20047;-83
2021/10/31 07:58:46;;;;;;;15.68;10.85;;;11.40;99.90;;;;;;12297463;28;20610;-84
2021/10/31 08:04:48;;;;;;;15.02;11.10;;;11.60;99.90;;;;;;12301358;28;20054;-85
2021/10/31 08:10:50;;;;;;;14.18;9.75;;;11.80;99.90;;;;;;12290058;28;20078;-85
2021/10/31 08:16:52;;;;;;;14.15;9.90;;;11.90;99.90;;;;;;12291438;28;20105;-84
2021/10/31 08:22:54;;;;;;;13.02;8.73;;;12.10;99.90;;;;;;12298879;28;20042;-84
2021/10/31 08:28:56;;;;;;;13.75;9.25;;;12.30;99.90;;;;;;12294013;28;20168;-85
2021/10/31 08:34:59;;;;;;;12.10;9.13;;;12.40;99.90;;;;;;12292246;28;20735;-84
2021/10/31 08:41:01;;;;;;;12.90;8.18;;;12.40;99.90;;;;;;12298448;28;20050;-85
2021/10/31 08:47:05;;;;;;;10.82;7.32;;;12.40;99.90;;;;;;12295816;28;20055;-85
2021/10/31 08:53:08;;;;;;;8.48;6.97;;;12.40;99.90;;;;;;12319636;28;20055;-83
2021/10/31 08:59:10;;;;;;;11.10;8.10;;;12.30;99.90;;;;;;12304939;28;20069;-82
2021/10/31 09:05:11;;;;;;;12.13;8.60;;;12.20;99.90;;;;;;12303736;28;20451;-84
2021/10/31 09:11:13;;;;;;;12.27;8.75;;;12.30;99.90;;;;;;12307272;28;20065;-84
2021/10/31 09:17:15;;;;;;;11.95;8.50;;;12.50;99.90;;;;;;12310583;28;20055;-84
2021/10/31 09:23:18;;;;;;;10.52;7.78;;;12.60;99.90;;;;;;12304811;28;20050;-84
2021/10/31 09:29:20;;;;;;;10.68;7.53;;;13.00;99.90;;;;;;12305678;28;20628;-85
2021/10/31 09:35:25;;;;;;;9.18;6.68;;;13.20;99.90;;;;;;12341889;28;20074;-86
2021/10/31 09:41:30;;;;;;;8.10;6.07;;;13.30;99.90;;;;;;12297047;28;20072;-84
2021/10/31 09:47:32;;;;;;;8.02;5.63;;;13.40;99.90;;;;;;12336034;28;20138;-86
2021/10/31 09:53:34;;;;;;;8.75;5.80;;;13.60;99.90;;;;;;12299804;28;20085;-86
2021/10/31 09:59:41;;;;;;;7.55;5.72;;;13.80;99.90;;;;;;12299574;28;20062;-86
2021/10/31 10:05:43;;;;;;;8.73;6.40;;;13.90;99.90;;;;;;12340489;28;20490;-85
2021/10/31 10:11:48;;;;;;;7.40;5.88;;;14.10;99.90;;;;;;12337202;28;20069;-84
2021/10/31 10:17:51;;;;;;;7.88;5.80;;;14.30;99.90;;;;;;12305535;28;20055;-84
2021/10/31 10:24:05;;;;;;;7.78;5.45;;;14.40;99.90;;;;;;12335225;28;20055;-83
2021/10/31 10:30:11;;;;;;;;;;;14.40;99.90;;;;;;12334075;28;20742;-85
2021/10/31 10:36:15;;;;;;;6.90;4.05;;;14.50;99.90;;;;;;12303361;28;20403;-84
2021/10/31 10:42:26;;;;;;;6.17;3.10;;;14.50;99.90;;;;;;12336685;28;20042;-85
2021/10/31 10:48:27;;;;;;;5.35;3.03;;;14.50;99.90;;;;;;12345994;28;20692;-85
2021/10/31 10:54:30;;;;;;;5.53;2.53;;;14.50;99.90;;;;;;12339315;28;20089;-85
2021/10/31 11:00:43;;;;;;;6.68;2.53;;;14.60;99.90;;;;;;12308358;28;20054;-85
2021/10/31 11:06:49;;;;;;;4.47;2.50;;;14.60;99.90;;;;;;12336243;28;20070;-84
2021/10/31 11:12:55;;;;;;;4.38;2.47;;;14.80;99.90;;;;;;12338156;28;20051;-84
2021/10/31 11:18:57;;;;;;;3.58;2.00;;;15.20;99.90;;;;;;12341737;28;20137;-85
2021/10/31 11:25:01;;;;;;;4.85;2.00;;;15.50;99.90;;;;;;12307554;28;20113;-85
2021/10/31 11:31:03;;;;;;;2.63;1.60;;;15.70;99.90;;;;;;12311271;28;20047;-84
2021/10/31 11:37:07;;;;;;;4.50;1.70;;;15.60;99.90;;;;;;12310163;28;20519;-85
2021/10/31 11:43:17;;;;;;;2.90;1.98;;;15.50;99.90;;;;;;12329694;28;20463;-84
2021/10/31 11:49:20;;;;;;;5.78;3.10;;;15.40;99.90;;;;;;12334792;28;20145;-86
2021/10/31 11:55:25;;;;;;;4.45;3.20;;;15.30;99.90;;;;;;12337343;28;20108;-85
2021/10/31 12:01:34;;;;;;;8.25;2.90;;;15.50;99.90;;;;;;12309335;28;20046;-85
2021/10/31 12:07:44;;;;;;;4.15;2.47;;;15.70;99.90;;;;;;12303983;28;20419;-86
2021/10/31 12:13:47;;;;;;;3.75;2.50;;;15.70;99.90;;;;;;12303752;28;20082;-84
2021/10/31 12:19:52;;;;;;;3.95;2.33;;;15.60;99.90;;;;;;12332316;28;20525;-85
2021/10/31 12:25:54;;;;;;;4.10;2.50;;;15.50;99.90;;;;;;12302777;28;20826;-84
2021/10/31 12:32:04;;;;;;;5.07;2.60;;;15.50;99.90;;;;;;12313788;28;20054;-84
2021/10/31 12:38:15;;;;;;;4.10;2.60;;;15.50;99.90;;;;;;12308831;28;20074;-82
2021/10/31 12:44:19;;;;;;;4.93;2.70;;;15.40;99.90;;;;;;12309097;28;20070;-83
2021/10/31 12:50:25;;;;;;;5.37;3.43;;;15.70;99.90;;;;;;12343355;28;20054;-83
2021/10/31 12:56:31;;;;;;;7.65;3.05;;;15.70;99.90;;;;;;12308436;28;20133;-84
2021/10/31 13:02:45;;;;;;;5.65;3.45;;;15.80;99.90;;;;;;12342218;28;20054;-82
2021/10/31 13:08:56;;;;;;;5.75;3.45;;;15.60;99.90;;;;;;12310025;28;20414;-83
2021/10/31 13:15:19;;;;;;;5.30;4.10;;;15.60;99.90;;;;;;12341153;28;20484;-83
2021/10/31 13:21:22;;;;;;;8.03;4.40;;;15.60;99.90;;;;;;12338251;28;20500;-82
2021/10/31 13:27:25;;;;;;;6.53;4.20;;;15.50;99.90;;;;;;12308931;28;20109;-81
2021/10/31 13:33:43;;;;;;;8.53;4.27;;;15.40;99.90;;;;;;12310495;28;20050;-83
2021/10/31 13:40:00;;;;;;;5.30;3.85;;;15.40;99.90;;;;;;12341673;28;20073;-86
2021/10/31 13:46:02;;;;;;;4.57;3.20;;;15.40;99.90;;;;;;12306312;28;20056;-85
2021/10/31 13:52:04;;;;;;;5.15;3.30;;;15.50;99.90;;;;;;12303372;28;20724;-84
2021/10/31 13:58:06;;;;;;;4.95;2.88;;;15.40;99.90;;;;;;12307273;28;20101;-83
2021/10/31 14:04:16;;;;;;;6.50;2.22;;;15.50;99.90;;;;;;12315284;28;20070;-85
2021/10/31 14:10:21;;;;;;;3.35;2.40;;;15.50;99.90;;;;;;12307766;28;20051;-84
2021/10/31 14:16:28;;;;;;;3.20;2.30;;;15.60;99.90;;;;;;12302711;28;20058;-83
2021/10/31 14:22:54;;;;;;;3.72;2.30;;;15.60;99.90;;;;;;12309492;28;20051;-82
2021/10/31 14:28:56;;;;;;;3.75;2.40;;;15.70;99.90;;;;;;12306893;28;20085;-84
2021/10/31 14:35:00;;;;;;;4.40;2.58;;;15.50;99.90;;;;;;12303616;28;20895;-84
2021/10/31 14:41:02;;;;;;;4.28;1.95;;;15.50;99.90;;;;;;12307461;28;20078;-83
2021/10/31 14:47:14;;;;;;;3.78;2.30;;;15.40;99.90;;;;;;12300936;28;20060;-85
2021/10/31 14:53:18;;;;;;;6.97;2.28;;;15.40;99.90;;;;;;12341621;28;20047;-85
2021/10/31 14:59:21;;;;;;;5.43;1.83;;;15.40;99.90;;;;;;12301194;28;20353;-87
2021/10/31 15:05:23;;;;;;;3.58;2.00;;;15.40;99.90;;;;;;12298207;28;20145;-85
2021/10/31 15:11:26;;;;;;;5.15;2.42;;;15.40;99.90;;;;;;12304044;28;20039;-83
2021/10/31 15:17:30;;;;;;;4.72;1.80;;;15.30;99.90;;;;;;12302009;28;20515;-82
2021/10/31 15:23:32;;;;;;;2.88;1.88;;;15.30;99.90;;;;;;12297936;28;20051;-84
2021/10/31 15:29:35;;;;;;;3.45;1.80;;;15.30;99.90;;;;;;12303481;28;20061;-83
2021/10/31 15:35:37;;;;;;;5.63;1.98;;;15.40;99.90;;;;;;12289458;28;20569;-85
2021/10/31 15:41:40;;;;;;;6.40;2.22;;;15.20;99.90;;;;;;12301366;28;20061;-85
2021/10/31 15:47:44;;;;;;;3.22;1.67;;;15.30;99.90;;;;;;12296854;28;21754;-85
2021/10/31 15:53:47;;;;;;;3.22;1.60;;;15.40;99.90;;;;;;12285197;28;20059;-86
2021/10/31 15:59:49;;;;;;;4.43;1.67;;;15.30;99.90;;;;;;12294600;28;20058;-83
2021/10/31 16:05:52;;;;;;;2.17;1.42;;;15.40;99.90;;;;;;12312966;28;20042;-86
2021/10/31 16:11:53;;;;;;;4.82;1.70;;;15.50;99.90;;;;;;12308488;28;20054;-86
2021/10/31 16:17:55;;;;;;;2.65;1.20;;;15.50;99.90;;;;;;12302904;28;20046;-86
2021/10/31 16:23:57;;;;;;;3.60;1.33;;;15.70;99.90;;;;;;12290503;28;20772;-84
2021/10/31 16:29:59;;;;;;;5.13;1.30;;;15.70;99.90;;;;;;12299464;28;20061;-85
2021/10/31 16:36:06;;;;;;;2.15;1.20;;;15.80;99.90;;;;;;12294105;28;20414;-87
2021/10/31 16:42:09;;;;;;;2.83;1.13;;;15.90;99.90;;;;;;12291849;28;20534;-84
2021/10/31 16:48:12;;;;;;;1.80;1.00;;;15.90;99.90;;;;;;12296092;28;20051;-86
2021/10/31 16:54:14;;;;;;;1.90;1.35;;;15.90;99.90;;;;;;12300716;28;20085;-83
2021/10/31 17:00:17;;;;;;;1.85;1.10;;;15.90;99.90;;;;;;12295640;28;20070;-85
2021/10/31 17:06:19;;;;;;;1.33;0.80;;;16.00;99.90;;;;;;12296835;28;20055;-83
2021/10/31 17:12:21;;;;;;;2.30;1.15;;;16.10;99.90;;;;;;12303290;28;20089;-82
2021/10/31 17:18:24;;;;;;;2.33;0.90;;;16.00;99.90;;;;;;12302810;28;20054;-84
2021/10/31 17:24:26;;;;;;;2.17;1.00;;;16.10;99.90;;;;;;12310461;28;20046;-83
2021/10/31 17:30:28;;;;;;;2.50;1.15;;;16.10;99.90;;;;;;12306827;28;20054;-83
2021/10/31 17:36:30;;;;;;;1.98;1.00;;;16.00;99.90;;;;;;12304881;28;20137;-81
2021/10/31 17:42:32;;;;;;;2.58;1.00;;;16.10;99.90;;;;;;12305793;28;20110;-84
2021/10/31 17:48:36;;;;;;;2.35;0.90;;;16.20;99.90;;;;;;12309298;28;20062;-87
2021/10/31 17:54:38;;;;;;;2.35;1.00;;;16.30;99.90;;;;;;12310582;28;20082;-83
2021/10/31 18:00:41;;;;;;;1.65;0.85;;;16.30;99.90;;;;;;12309748;28;20050;-85
2021/10/31 18:06:45;;;;;;;;;;;16.30;99.90;;;;;;12306845;28;20047;-85
2021/10/31 18:12:49;;;;;;;2.17;0.95;;;16.30;99.90;;;;;;12337121;28;20477;-85
2021/10/31 18:18:51;;;;;;;2.17;0.80;;;16.30;99.90;;;;;;12310183;28;20062;-85
2021/10/31 18:24:56;;;;;;;1.70;0.95;;;16.20;99.90;;;;;;12310426;28;20043;-82
2021/10/31 18:31:00;;;;;;;4.75;0.88;;;16.10;99.90;;;;;;12304435;28;20051;-85
2021/10/31 18:37:05;;;;;;;1.27;0.82;;;16.00;99.90;;;;;;12305080;28;20596;-86
2021/10/31 18:43:08;;;;;;;1.75;0.90;;;16.00;99.90;;;;;;12306536;28;20082;-84
2021/10/31 18:49:11;;;;;;;1.20;0.80;;;16.00;99.90;;;;;;12312416;28;20101;-85
2021/10/31 18:55:14;;;;;;;1.58;0.80;;;16.00;99.90;;;;;;12306187;28;20128;-84
2021/10/31 19:01:16;;;;;;;1.30;0.85;;;16.00;99.90;;;;;;12304419;28;20051;-82
2021/10/31 19:07:18;;;;;;;1.80;0.90;;;16.10;99.90;;;;;;12306274;28;20855;-81
2021/10/31 19:13:20;;;;;;;2.45;1.05;;;16.10;99.90;;;;;;12302128;28;20046;-83
2021/10/31 19:19:23;;;;;;;2.53;1.10;;;16.00;99.90;;;;;;12305503;28;20062;-81
2021/10/31 19:25:37;;;;;;;2.78;1.10;;;16.10;99.90;;;;;;12301234;28;20049;-82
2021/10/31 19:31:39;;;;;;;;;;;16.20;99.90;;;;;;12306766;28;20047;-83
2021/10/31 19:37:41;;;;;;;3.17;1.10;;;16.40;99.90;;;;;;12295926;28;19945;-83
2021/10/31 19:43:43;;;;;;;2.55;0.93;;;16.50;99.90;;;;;;12306915;28;20138;-81
2021/10/31 19:49:46;;;;;;;2.42;0.93;;;16.40;99.90;;;;;;12295707;28;20061;-83
2021/10/31 19:55:47;;;;;;;3.78;1.33;;;16.50;99.90;;;;;;12335789;28;20158;-82
2021/10/31 20:01:49;;;;;;;2.30;1.13;;;16.60;99.90;;;;;;12299134;28;20100;-82
2021/10/31 20:07:51;;;;;;;3.38;1.10;;;16.50;99.90;;;;;;12334653;28;20105;-84
2021/10/31 20:13:53;;;;;;;2.78;1.40;;;16.50;99.90;;;;;;12300224;28;20051;-83
2021/10/31 20:19:56;;;;;;;5.95;1.20;;;16.40;99.90;;;;;;12334469;28;20093;-82
2021/10/31 20:25:58;;;;;;;3.13;1.60;;;16.20;99.90;;;;;;12302853;28;20092;-83
2021/10/31 20:32:00;;;;;;;4.57;1.35;;;16.30;99.90;;;;;;12304688;28;20549;-83
2021/10/31 20:38:02;;;;;;;3.63;1.17;;;16.30;99.90;;;;;;12336062;28;20051;-81
2021/10/31 20:44:05;;;;;;;3.13;1.40;;;16.10;99.90;;;;;;12306432;28;20370;-83
2021/10/31 20:50:08;;;;;;;2.92;1.50;;;16.20;99.90;;;;;;12309379;28;20539;-82
2021/10/31 20:56:18;;;;;;;2.72;1.40;;;16.30;99.90;;;;;;12309267;28;20059;-81
2021/10/31 21:02:20;;;;;;;6.15;1.40;;;16.30;99.90;;;;;;12314013;28;20062;-81
2021/10/31 21:08:26;;;;;;;2.67;1.30;;;16.30;99.90;;;;;;12316428;28;20070;-81
2021/10/31 21:14:29;;;;;;;2.72;1.60;;;16.20;99.90;;;;;;12309487;28;20050;-84
2021/10/31 21:20:31;;;;;;;6.65;1.20;;;16.10;99.90;;;;;;12341024;28;20051;-83
2021/10/31 21:26:36;;;;;;;2.83;1.30;;;16.20;99.90;;;;;;12310230;28;20452;-81
2021/10/31 21:32:38;;;;;;;2.30;1.13;;;16.20;99.90;;;;;;12314130;28;20082;-83
2021/10/31 21:38:41;;;;;;;3.08;1.27;;;16.30;99.90;;;;;;12309154;28;20113;-81
2021/10/31 21:44:44;;;;;;;9.05;1.70;;;16.10;99.90;;;;;;12305071;28;20156;-84
2021/10/31 21:50:46;;;;;;;2.40;1.30;;;15.40;99.90;;;;;;12308014;28;20042;-84
2021/10/31 21:56:49;;;;;;;2.75;1.42;;;15.00;99.90;;;;;;12308163;28;20101;-83
2021/10/31 22:02:51;;;;;;;3.03;1.58;;;14.90;99.90;;;;;;12306629;28;20350;-83
2021/10/31 22:08:53;;;;;;;2.88;1.30;;;14.70;99.90;;;;;;12308899;28;20074;-84
2021/10/31 22:14:56;;;;;;;2.38;1.20;;;14.60;99.90;;;;;;12304075;28;20503;-83
2021/10/31 22:20:57;;;;;;;1.65;0.85;;;14.70;99.90;;;;;;12311222;28;20144;-84
2021/10/31 22:27:01;;;;;;;1.27;0.65;;;14.50;99.90;;;;;;12308275;28;20452;-83
2021/10/31 22:33:02;;;;;;;1.23;0.43;;;14.60;99.90;;;;;;12308605;28;20905;-83
2021/10/31 22:39:05;;;;;;;1.35;0.43;;;14.50;99.90;;;;;;12304007;28;20054;-85
2021/10/31 22:45:07;;;;;;;1.80;0.85;;;14.40;99.90;;;;;;12306556;28;20369;-85
2021/10/31 22:51:09;;;;;;;1.15;0.52;;;14.20;99.90;;;;;;12308945;28;20063;-84
2021/10/31 22:57:13;;;;;;;1.85;0.50;;;14.00;99.90;;;;;;12303227;28;20091;-84
2021/10/31 23:03:25;;;;;;;6.87;1.40;;;14.10;99.90;;;;;;12312852;28;20137;-85
2021/10/31 23:09:27;;;;;;;7.55;1.65;;;13.80;99.90;;;;;;12306637;28;20057;-85
2021/10/31 23:15:29;;;;;;;9.35;1.40;;;13.60;99.90;;;;;;12304859;28;20622;-88
2021/10/31 23:21:31;;;;;;;10.10;1.38;;;13.10;99.90;;;;;;12333650;28;20309;-87
2021/10/31 23:27:33;;;;;;;8.55;1.40;;;13.00;99.90;;;;;;12305462;28;20662;-86
2021/10/31 23:33:36;;;;;;;10.90;1.88;;;12.60;99.90;;;;;;12301950;28;20051;-86
2021/10/31 23:39:38;;;;;;;10.38;1.55;;;12.40;99.90;;;;;;12301752;28;20042;-86
2021/10/31 23:45:43;;;;;;;11.25;1.70;;;12.40;99.90;;;;;;12302772;28;20129;-87
2021/10/31 23:51:45;;;;;;;10.32;1.65;;;12.40;99.90;;;;;;12338986;28;20066;-86
2021/10/31 23:57:47;;;;;;;14.15;1.33;;;12.30;99.90;;;;;;12296500;28;20287;-87
